Time;durP1;ratioP1;P1;durP2;ratioP2;P2;SDS_P1;SDS_P2;PMS_P1;PMS_P2;Temp;Humidity;BMP_temperature;BMP_pressure;BME280_temperature;BME280_humidity;BME280_pressure;Samples;Min_cycle;Max_cycle;Signal;HPM_P1;HPM_P2
2021/08/17 00:01:06;;;;;;;10.15;2.60;;;;;;;13.30;63.63;101967.94;5051582;28;20112;-77
2021/08/17 00:03:31;;;;;;;6.25;2.30;;;;;;;13.27;63.47;101962.84;5052154;28;20025;-77
2021/08/17 00:05:57;;;;;;;12.88;3.08;;;;;;;13.25;63.67;101959.44;5051565;28;20048;-77
2021/08/17 00:08:22;;;;;;;10.68;2.78;;;;;;;13.23;63.91;101962.25;5052138;28;20025;-77
2021/08/17 00:10:48;;;;;;;8.32;2.67;;;;;;;13.22;63.65;101959.69;5052172;28;20029;-76
2021/08/17 00:13:13;;;;;;;9.30;2.50;;;;;;;13.21;64.35;101960.66;5051565;28;20032;-76
2021/08/17 00:15:39;;;;;;;13.52;2.83;;;;;;;13.19;64.91;101954.63;5052019;28;20043;-76
2021/08/17 00:18:04;;;;;;;14.85;2.53;;;;;;;13.14;65.67;101951.50;5051342;28;20033;-76
2021/08/17 00:20:30;;;;;;;15.15;2.70;;;;;;;13.14;65.26;101956.84;5054869;28;20037;-76
2021/08/17 00:22:55;;;;;;;10.85;2.78;;;;;;;13.16;65.58;101949.53;5070751;28;20044;-77
2021/08/17 00:25:20;;;;;;;12.15;2.70;;;;;;;13.19;65.67;101954.63;5055456;28;20041;-75
2021/08/17 00:27:46;;;;;;;9.23;3.05;;;;;;;13.21;65.79;101948.19;5055795;28;20055;-75
2021/08/17 00:30:12;;;;;;;13.82;3.45;;;;;;;13.24;66.33;101952.38;5055130;28;20033;-76
2021/08/17 00:32:38;;;;;;;10.45;2.67;;;;;;;13.30;66.35;101940.34;5055937;28;20151;-76
2021/08/17 00:35:04;;;;;;;9.73;2.85;;;;;;;13.39;65.19;101945.78;5055070;28;20420;-76
2021/08/17 00:37:30;;;;;;;10.98;2.78;;;;;;;13.49;65.61;101939.66;5071123;28;20033;-78
2021/08/17 00:39:55;;;;;;;12.77;2.85;;;;;;;13.58;65.37;101939.72;5054872;28;20037;-77
2021/08/17 00:42:21;;;;;;;10.00;2.55;;;;;;;13.64;65.65;101937.50;5054423;28;20082;-77
2021/08/17 00:44:46;;;;;;;9.52;2.50;;;;;;;13.66;65.67;101941.75;5055441;28;20037;-77
2021/08/17 00:47:13;;;;;;;9.95;2.92;;;;;;;13.69;64.75;101927.22;5054775;28;20389;-76
2021/08/17 00:49:39;;;;;;;7.80;2.70;;;;;;;13.73;65.17;101926.00;5055410;28;20033;-76
2021/08/17 00:52:05;;;;;;;8.45;2.30;;;;;;;13.71;65.38;101933.31;5054801;28;20485;-76
2021/08/17 00:54:31;;;;;;;12.20;3.13;;;;;;;13.70;65.68;101931.59;5055354;28;20106;-77
2021/08/17 00:56:56;;;;;;;9.20;2.60;;;;;;;13.70;65.37;101929.81;5053251;28;20037;-77
2021/08/17 00:59:22;;;;;;;11.32;3.22;;;;;;;13.70;65.70;101927.13;5054747;28;20053;-76
2021/08/17 01:01:48;;;;;;;11.13;2.50;;;;;;;13.79;65.81;101917.44;5055147;28;20041;-79
2021/08/17 01:04:13;;;;;;;6.20;2.63;;;;;;;13.89;65.33;101934.38;5054615;28;20033;-76
2021/08/17 01:06:40;;;;;;;7.55;2.60;;;;;;;13.95;64.60;101927.66;5054872;28;20044;-77
2021/08/17 01:09:07;;;;;;;13.70;3.05;;;;;;;13.98;65.00;101926.53;5054164;28;20498;-76
2021/08/17 01:11:33;;;;;;;7.28;2.72;;;;;;;14.01;64.93;101936.97;5054979;28;20061;-76
2021/08/17 01:13:58;;;;;;;6.95;2.63;;;;;;;14.10;64.71;101936.97;5054038;28;20124;-78
2021/08/17 01:16:24;;;;;;;11.20;2.75;;;;;;;14.16;64.45;101934.75;5054575;28;20441;-77
2021/08/17 01:18:49;;;;;;;9.85;3.00;;;;;;;14.18;64.47;101932.78;5055007;28;20091;-77
2021/08/17 01:21:16;;;;;;;10.52;2.75;;;;;;;14.15;65.27;101933.91;5054246;28;20037;-77
2021/08/17 01:23:43;;;;;;;7.78;2.63;;;;;;;14.13;65.16;101935.88;5054765;28;20035;-77
2021/08/17 01:26:09;;;;;;;10.45;2.40;;;;;;;14.17;64.77;101933.78;5054269;28;20049;-77
2021/08/17 01:28:34;;;;;;;15.63;2.85;;;;;;;14.17;65.48;101942.66;5054701;28;20120;-77
2021/08/17 01:31:05;;;;;;;10.27;2.53;;;;;;;14.19;64.92;101940.69;5053037;28;20029;-79
2021/08/17 01:33:30;;;;;;;6.03;2.37;;;;;;;14.26;65.30;101943.69;5054971;28;20033;-77
2021/08/17 01:35:56;;;;;;;7.82;3.00;;;;;;;14.29;66.00;101948.75;5054715;28;20037;-78
2021/08/17 01:38:22;;;;;;;7.38;2.83;;;;;;;14.32;66.10;101948.47;5053884;28;20059;-77
2021/08/17 01:40:47;;;;;;;13.43;2.88;;;;;;;14.35;66.23;101947.38;5054426;28;20040;-76
2021/08/17 01:43:13;;;;;;;4.75;2.60;;;;;;;14.35;66.37;101956.25;5052624;28;20115;-76
2021/08/17 01:45:38;;;;;;;12.07;2.63;;;;;;;14.38;66.15;101947.94;5054377;28;20384;-76
2021/08/17 01:48:05;;;;;;;7.95;2.80;;;;;;;14.39;66.07;101962.16;5052439;28;20029;-76
2021/08/17 01:50:32;;;;;;;7.28;2.47;;;;;;;14.40;66.29;101961.19;5054309;28;20037;-76
2021/08/17 01:52:57;;;;;;;11.77;2.95;;;;;;;14.36;67.02;101951.72;5054016;28;20469;-76
2021/08/17 01:55:23;;;;;;;7.35;3.00;;;;;;;14.33;67.41;101947.50;5052144;28;20033;-77
2021/08/17 01:57:49;;;;;;;8.55;2.63;;;;;;;14.33;66.82;101950.19;5054088;28;20452;-76
2021/08/17 02:00:14;;;;;;;7.60;2.80;;;;;;;14.37;66.78;101951.59;5053282;28;20057;-77
2021/08/17 02:02:40;;;;;;;10.65;2.72;;;;;;;14.40;66.60;101956.66;5054113;28;20025;-77
2021/08/17 02:05:06;;;;;;;15.82;3.38;;;;;;;14.39;67.01;101941.59;5053368;28;20043;-77
2021/08/17 02:07:32;;;;;;;9.25;2.75;;;;;;;14.39;66.55;101940.72;5054116;28;20119;-78
2021/08/17 02:09:57;;;;;;;10.15;2.85;;;;;;;14.37;66.39;101948.91;5054117;28;20454;-78
2021/08/17 02:12:22;;;;;;;8.40;2.90;;;;;;;14.38;66.80;101947.94;5053194;28;20136;-78
2021/08/17 02:14:48;;;;;;;8.73;3.20;;;;;;;14.40;66.20;101945.94;5068887;28;20033;-78
2021/08/17 02:17:13;;;;;;;8.98;3.00;;;;;;;14.40;66.41;101950.47;5053120;28;20119;-77
2021/08/17 02:19:39;;;;;;;6.53;3.10;;;;;;;14.39;66.89;101949.63;5053399;28;20511;-77
2021/08/17 02:22:05;;;;;;;9.73;3.08;;;;;;;14.39;66.98;101938.91;5053184;28;20032;-77
2021/08/17 02:24:30;;;;;;;10.38;3.70;;;;;;;14.37;67.33;101937.34;5052983;28;20094;-78
2021/08/17 02:26:56;;;;;;;13.75;3.60;;;;;;;14.37;67.70;101938.19;5053193;28;20032;-77
2021/08/17 02:29:22;;;;;;;10.00;3.65;;;;;;;14.35;67.86;101947.38;5052853;28;20080;-78
2021/08/17 02:31:48;;;;;;;17.23;4.05;;;;;;;14.29;68.66;101944.25;5053357;28;20097;-78
2021/08/17 02:34:13;;;;;;;6.78;3.88;;;;;;;14.23;68.91;101934.09;5052634;28;20108;-77
2021/08/17 02:36:38;;;;;;;6.25;3.60;;;;;;;14.15;69.80;101933.91;5053329;28;20059;-76
2021/08/17 02:39:04;;;;;;;12.63;4.25;;;;;;;14.09;70.98;101939.78;5053528;28;20039;-77
2021/08/17 02:41:29;;;;;;;10.88;4.32;;;;;;;14.01;71.69;101929.78;5052729;28;20121;-77
2021/08/17 02:43:54;;;;;;;14.25;5.00;;;;;;;13.95;72.56;101916.94;5052897;28;20068;-77
2021/08/17 02:46:20;;;;;;;11.98;5.10;;;;;;;13.88;73.17;101926.47;5052602;28;20469;-78
2021/08/17 02:48:45;;;;;;;10.00;5.40;;;;;;;13.84;73.70;101935.75;5053403;28;20041;-78
2021/08/17 02:51:11;;;;;;;12.43;5.63;;;;;;;13.83;74.14;101939.44;5052190;28;20470;-78
2021/08/17 02:53:36;;;;;;;19.55;6.07;;;;;;;13.84;74.64;101935.75;5053078;28;20041;-77
2021/08/17 02:56:02;;;;;;;17.75;6.43;;;;;;;13.86;74.69;101937.31;5053319;28;20037;-77
2021/08/17 02:58:27;;;;;;;16.30;6.05;;;;;;;13.88;74.77;101919.31;5052243;28;20084;-77
2021/08/17 03:00:53;;;;;;;14.90;6.15;;;;;;;13.88;74.99;101930.03;5052322;28;20057;-78
2021/08/17 03:03:18;;;;;;;14.02;6.60;;;;;;;13.90;75.17;101930.72;5052238;28;20504;-78
2021/08/17 03:05:43;;;;;;;16.55;5.88;;;;;;;13.90;75.19;101932.56;5052795;28;20037;-77
2021/08/17 03:08:09;;;;;;;15.32;6.13;;;;;;;13.89;75.54;101930.84;5052879;28;20036;-78
2021/08/17 03:10:36;;;;;;;14.82;5.88;;;;;;;13.83;75.77;101921.53;5052141;28;20401;-78
2021/08/17 03:13:05;;;;;;;17.85;6.40;;;;;;;13.77;75.99;101923.91;5052485;28;20118;-78
2021/08/17 03:15:33;;;;;;;18.60;6.60;;;;;;;13.72;76.33;101925.16;5051785;28;20029;-78
2021/08/17 03:18:04;;;;;;;24.67;6.80;;;;;;;13.71;76.77;101925.28;5052718;28;20037;-78
2021/08/17 03:20:30;;;;;;;19.23;7.15;;;;;;;13.69;76.71;101927.22;5051700;28;20107;-78
2021/08/17 03:22:56;;;;;;;16.83;6.63;;;;;;;13.64;76.89;101922.28;5052665;28;20040;-77
2021/08/17 03:25:23;;;;;;;17.98;7.07;;;;;;;13.62;77.52;101921.59;5052053;28;20068;-78
2021/08/17 03:27:49;;;;;;;15.55;6.97;;;;;;;13.55;77.44;101913.25;5051308;28;20024;-78
2021/08/17 03:30:16;;;;;;;19.35;6.97;;;;;;;13.50;77.43;101914.63;5067184;28;20457;-78
2021/08/17 03:32:42;;;;;;;14.07;6.78;;;;;;;13.48;78.17;101913.88;5052448;28;20376;-78
2021/08/17 03:35:09;;;;;;;16.45;6.47;;;;;;;13.44;78.31;101907.13;5052467;28;20025;-77
2021/08/17 03:37:38;;;;;;;15.35;7.03;;;;;;;13.40;78.33;101918.09;5051624;28;20155;-78
2021/08/17 03:40:11;;;;;;;13.90;7.13;;;;;;;13.39;78.72;101911.03;5052230;28;20029;-78
2021/08/17 03:42:38;;;;;;;18.52;6.97;;;;;;;13.40;78.82;101901.19;5051510;28;20029;-77
2021/08/17 03:45:04;;;;;;;19.45;6.25;;;;;;;13.40;79.20;101902.06;5052406;28;20071;-78
2021/08/17 03:47:30;;;;;;;20.30;7.53;;;;;;;13.47;78.75;101898.84;5051612;28;20029;-78
2021/08/17 03:49:55;;;;;;;18.90;7.30;;;;;;;13.55;78.32;101897.22;5052552;28;20041;-78
2021/08/17 03:52:21;;;;;;;17.38;7.00;;;;;;;13.63;78.17;101895.69;5051762;28;20112;-77
2021/08/17 03:54:46;;;;;;;17.00;7.15;;;;;;;13.64;78.09;101900.88;5053807;28;20076;-78
2021/08/17 03:57:12;;;;;;;14.70;7.00;;;;;;;13.65;78.14;101907.94;5056783;28;20112;-78
2021/08/17 03:59:37;;;;;;;14.65;6.88;;;;;;;13.66;78.06;101904.28;5055723;28;20435;-78
2021/08/17 04:02:03;;;;;;;24.83;7.57;;;;;;;13.68;78.11;101906.84;5071692;28;20040;-78
2021/08/17 04:04:28;;;;;;;16.30;7.57;;;;;;;13.70;77.99;101904.88;5071224;28;20489;-78
2021/08/17 04:06:53;;;;;;;18.70;7.13;;;;;;;13.67;78.63;101908.66;5071685;28;20025;-78
2021/08/17 04:09:19;;;;;;;19.30;7.80;;;;;;;13.65;78.24;101909.78;5054210;28;20033;-79
2021/08/17 04:11:44;;;;;;;26.55;8.32;;;;;;;13.69;78.10;101911.19;5055849;28;20036;-77
2021/08/17 04:14:09;;;;;;;19.10;7.38;;;;;;;13.71;78.24;101912.75;5056077;28;20036;-77
2021/08/17 04:16:35;;;;;;;17.55;7.00;;;;;;;13.75;77.86;101908.00;5055460;28;20520;-77
2021/08/17 04:19:00;;;;;;;20.65;7.78;;;;;;;13.80;77.42;101911.09;5055936;28;20052;-78
2021/08/17 04:21:26;;;;;;;16.08;7.80;;;;;;;13.84;77.27;101915.22;5055313;28;20041;-78
2021/08/17 04:23:51;;;;;;;17.90;7.25;;;;;;;13.88;77.54;101910.44;5055820;28;20037;-77
2021/08/17 04:26:17;;;;;;;18.95;7.80;;;;;;;13.90;77.30;101909.31;5055815;28;20033;-77
2021/08/17 04:28:42;;;;;;;27.05;8.43;;;;;;;13.93;77.49;101913.56;5055159;28;20155;-78
2021/08/17 04:31:08;;;;;;;22.80;8.10;;;;;;;13.93;77.71;101913.56;5056085;28;20036;-78
2021/08/17 04:33:33;;;;;;;17.20;7.75;;;;;;;13.92;77.44;101919.88;5055103;28;20649;-78
2021/08/17 04:35:58;;;;;;;21.30;8.07;;;;;;;13.95;77.13;101908.06;5054424;28;20040;-77
2021/08/17 04:38:24;;;;;;;19.17;8.27;;;;;;;14.01;76.82;101912.88;5055033;28;20033;-78
2021/08/17 04:40:49;;;;;;;18.98;7.53;;;;;;;14.10;76.29;101909.38;5055563;28;20070;-76
2021/08/17 04:43:14;;;;;;;22.35;8.13;;;;;;;14.18;75.70;101914.06;5055379;28;20110;-76
2021/08/17 04:45:40;;;;;;;23.70;8.02;;;;;;;14.24;75.49;101905.47;5054807;28;20653;-77
2021/08/17 04:48:05;;;;;;;19.58;8.00;;;;;;;14.24;76.28;101902.78;5055151;28;20033;-77
2021/08/17 04:50:31;;;;;;;23.08;8.88;;;;;;;14.23;75.87;101899.28;5054480;28;20044;-78
2021/08/17 04:52:56;;;;;;;20.30;8.18;;;;;;;14.25;76.00;101902.66;5055316;28;20079;-77
2021/08/17 04:55:22;;;;;;;21.90;8.40;;;;;;;14.26;75.89;101901.69;5054839;28;20063;-77
2021/08/17 04:57:55;;;;;;;27.83;10.02;;;;;;;14.28;76.58;101901.53;5054861;28;20064;-77
2021/08/17 05:00:22;;;;;;;22.17;9.07;;;;;;;14.30;76.17;101899.56;5055261;28;20084;-77
2021/08/17 05:02:48;;;;;;;21.10;9.55;;;;;;;14.33;76.76;101901.13;5054778;28;20070;-78
2021/08/17 05:05:14;;;;;;;22.17;9.35;;;;;;;14.29;76.54;101900.56;5070390;28;20470;-78
2021/08/17 05:07:40;;;;;;;24.88;10.13;;;;;;;14.28;77.13;101909.56;5054500;28;20037;-77
2021/08/17 05:10:07;;;;;;;29.02;9.70;;;;;;;14.24;77.29;101911.69;5054752;28;20051;-78
2021/08/17 05:12:34;;;;;;;28.90;10.93;;;;;;;14.19;77.61;101907.72;5054163;28;20037;-78
2021/08/17 05:14:59;;;;;;;28.90;8.98;;;;;;;14.18;77.71;101919.41;5054854;28;20108;-82
2021/08/17 05:17:25;;;;;;;23.67;10.02;;;;;;;14.16;77.79;101910.69;5054597;28;20061;-75
2021/08/17 05:19:50;;;;;;;34.20;10.10;;;;;;;14.22;78.22;101900.25;5054736;28;20068;-77
2021/08/17 05:22:16;;;;;;;23.30;9.25;;;;;;;14.26;77.77;101898.16;5054547;28;20129;-77
2021/08/17 05:24:42;;;;;;;18.60;8.25;;;;;;;14.36;77.74;101890.16;5053910;28;20072;-77
2021/08/17 05:27:08;;;;;;;24.67;9.10;;;;;;;14.43;77.59;101886.78;5054686;28;20450;-78
2021/08/17 05:29:33;;;;;;;21.48;8.55;;;;;;;14.50;77.41;101886.25;5054184;28;20065;-77
2021/08/17 05:31:58;;;;;;;19.33;8.43;;;;;;;14.52;77.84;101882.41;5054630;28;20064;-78
2021/08/17 05:34:24;;;;;;;24.40;8.50;;;;;;;14.52;77.62;101889.59;5054620;28;20039;-79
2021/08/17 05:36:49;;;;;;;24.38;8.20;;;;;;;14.51;77.34;101888.78;5053653;28;20033;-79
2021/08/17 05:39:15;;;;;;;25.77;8.30;;;;;;;14.52;77.38;101882.41;5054148;28;20067;-80
2021/08/17 05:41:40;;;;;;;20.83;8.13;;;;;;;14.56;77.33;101881.16;5052366;28;20069;-78
2021/08/17 05:44:05;;;;;;;17.90;7.13;;;;;;;14.57;77.06;101879.31;5054401;28;20041;-75
2021/08/17 05:46:31;;;;;;;18.33;8.00;;;;;;;14.56;77.88;101877.63;5053735;28;20025;-76
2021/08/17 05:48:56;;;;;;;20.88;8.00;;;;;;;14.55;77.30;101881.28;5053978;28;20040;-75
2021/08/17 05:51:21;;;;;;;16.35;7.60;;;;;;;14.53;77.33;101881.44;5053841;28;20076;-77
2021/08/17 05:53:47;;;;;;;21.17;7.30;;;;;;;14.55;77.37;101884.81;5053408;28;20029;-78
2021/08/17 05:56:12;;;;;;;22.90;7.45;;;;;;;14.59;77.14;101880.03;5069276;28;20044;-79
2021/08/17 05:58:37;;;;;;;20.33;7.28;;;;;;;14.67;76.81;101885.56;5051873;28;20031;-76
2021/08/17 06:01:03;;;;;;;18.02;7.50;;;;;;;14.76;76.43;101890.09;5054028;28;20432;-79
2021/08/17 06:03:28;;;;;;;20.05;7.07;;;;;;;14.83;76.22;101900.25;5054080;28;20080;-79
2021/08/17 06:05:57;;;;;;;20.83;7.13;;;;;;;14.87;75.54;101886.41;5053426;28;20105;-78
2021/08/17 06:08:23;;;;;;;19.45;6.88;;;;;;;14.91;76.27;101884.28;5052685;28;20033;-79
2021/08/17 06:10:49;;;;;;;22.45;7.25;;;;;;;14.93;75.50;101888.53;5053525;28;20037;-80
2021/08/17 06:13:14;;;;;;;23.02;6.97;;;;;;;14.98;75.98;101888.09;5053644;28;20033;-77
2021/08/17 06:15:40;;;;;;;24.85;8.52;;;;;;;15.02;76.09;101892.19;5050826;28;20516;-81
2021/08/17 06:18:05;;;;;;;21.60;6.88;;;;;;;15.06;75.55;101896.28;5064935;28;20215;-80
2021/08/17 06:20:32;;;;;;;27.45;7.07;;;;;;;15.11;75.30;101906.56;5050830;28;20112;-81
2021/08/17 06:22:57;;;;;;;17.67;6.45;;;;;;;15.18;74.16;101898.78;5049550;28;20456;-79
2021/08/17 06:25:23;;;;;;;15.15;7.00;;;;;;;15.20;75.06;101903.03;5050106;28;20123;-81
2021/08/17 06:27:50;;;;;;;15.23;6.88;;;;;;;15.26;73.53;101904.28;5049150;28;20048;-81
2021/08/17 06:30:15;;;;;;;17.27;6.85;;;;;;;15.31;74.64;101915.41;5050653;28;20066;-79
2021/08/17 06:32:41;;;;;;;17.38;6.65;;;;;;;15.43;72.91;101911.56;5049748;28;20029;-79
2021/08/17 06:35:07;;;;;;;16.80;6.70;;;;;;;15.59;71.92;101918.19;5050579;28;20469;-78
2021/08/17 06:37:32;;;;;;;20.10;6.55;;;;;;;15.75;71.21;101923.78;5050322;28;20047;-77
2021/08/17 06:39:57;;;;;;;19.38;6.03;;;;;;;15.82;71.19;101929.41;5049657;28;20116;-79
2021/08/17 06:42:23;;;;;;;18.38;6.22;;;;;;;15.83;71.42;101913.16;5050931;28;20124;-78
2021/08/17 06:44:48;;;;;;;18.38;6.15;;;;;;;15.84;70.91;101898.78;5049938;28;20033;-77
2021/08/17 06:47:14;;;;;;;11.88;5.85;;;;;;;15.84;71.02;101908.66;5065674;28;20123;-76
2021/08/17 06:49:39;;;;;;;18.50;6.45;;;;;;;15.74;71.27;101905.97;5047669;28;20044;-82
2021/08/17 06:52:04;;;;;;;19.83;6.47;;;;;;;15.70;70.93;101915.31;5051806;28;20094;-78
2021/08/17 06:54:30;;;;;;;19.50;6.43;;;;;;;15.64;71.68;101914.06;5054417;28;20043;-79
2021/08/17 06:56:55;;;;;;;13.18;6.32;;;;;;;15.60;71.86;101906.44;5053417;28;20461;-79
2021/08/17 06:59:20;;;;;;;10.73;6.00;;;;;;;15.47;71.60;101890.69;5052804;28;20115;-79
2021/08/17 07:01:46;;;;;;;18.55;6.78;;;;;;;15.44;72.29;101893.66;5052421;28;20041;-78
2021/08/17 07:04:11;;;;;;;14.32;5.57;;;;;;;15.39;72.59;101888.75;5053039;28;20040;-78
2021/08/17 07:06:37;;;;;;;16.88;6.30;;;;;;;15.39;72.99;101888.75;5052646;28;20102;-82
2021/08/17 07:09:03;;;;;;;12.80;5.95;;;;;;;15.43;71.61;101871.34;5052545;28;20037;-79
2021/08/17 07:11:30;;;;;;;13.27;5.55;;;;;;;15.47;71.07;101878.13;5052812;28;20029;-78
2021/08/17 07:13:55;;;;;;;19.35;5.47;;;;;;;15.55;70.43;101877.38;5052048;28;20040;-78
2021/08/17 07:16:20;;;;;;;17.80;5.55;;;;;;;15.67;70.47;101886.09;5052656;28;20381;-79
2021/08/17 07:18:46;;;;;;;15.15;4.55;;;;;;;15.77;69.83;101884.22;5051969;28;20072;-80
2021/08/17 07:21:11;;;;;;;13.63;5.07;;;;;;;15.77;69.47;101870.81;5052861;28;20037;-80
2021/08/17 07:23:36;;;;;;;12.65;5.13;;;;;;;15.81;69.36;101879.44;5052867;28;20523;-77
2021/08/17 07:26:02;;;;;;;11.23;5.15;;;;;;;15.78;69.50;101877.03;5052382;28;20041;-78
2021/08/17 07:28:28;;;;;;;16.13;4.68;;;;;;;15.74;69.70;101876.47;5051782;28;20465;-77
2021/08/17 07:30:53;;;;;;;11.70;4.80;;;;;;;15.79;70.41;101886.78;5051587;28;20381;-76
2021/08/17 07:33:19;;;;;;;12.68;5.15;;;;;;;15.92;69.79;101889.97;5052392;28;20453;-77
2021/08/17 07:35:45;;;;;;;12.93;4.97;;;;;;;16.13;66.76;101903.13;5050583;28;20033;-76
2021/08/17 07:38:10;;;;;;;13.00;4.70;;;;;;;16.38;66.44;101901.56;5052123;28;20465;-77
2021/08/17 07:40:36;;;;;;;12.35;4.95;;;;;;;16.52;65.34;101899.38;5052406;28;20462;-77
2021/08/17 07:43:01;;;;;;;11.25;4.32;;;;;;;16.59;63.74;101896.94;5050573;28;20525;-81
2021/08/17 07:45:26;;;;;;;13.40;4.63;;;;;;;16.64;64.51;101902.69;5051202;28;20041;-80
2021/08/17 07:47:52;;;;;;;11.48;4.32;;;;;;;16.75;64.58;101897.09;5051813;28;20470;-83
2021/08/17 07:50:18;;;;;;;14.95;4.70;;;;;;;16.93;63.77;101897.09;5052164;28;20068;-80
2021/08/17 07:52:44;;;;;;;14.05;4.53;;;;;;;17.08;63.44;101900.91;5051753;28;20492;-81
2021/08/17 07:55:12;;;;;;;9.93;4.22;;;;;;;17.12;63.69;101897.91;5051839;28;20063;-81
2021/08/17 07:57:39;;;;;;;10.35;5.03;;;;;;;16.91;64.08;101901.78;5052256;28;20037;-80
2021/08/17 08:00:06;;;;;;;8.68;4.22;;;;;;;16.83;63.47;101902.50;5051448;28;20055;-81
2021/08/17 08:02:31;;;;;;;13.85;4.63;;;;;;;16.69;64.95;101906.59;5052121;28;20045;-80
2021/08/17 08:04:57;;;;;;;9.57;4.18;;;;;;;16.46;65.01;101899.97;5051966;28;20021;-80
2021/08/17 08:07:22;;;;;;;11.23;4.43;;;;;;;16.29;65.63;101899.81;5051941;28;20055;-82
2021/08/17 08:09:47;;;;;;;13.10;4.78;;;;;;;16.29;65.88;101891.75;5051336;28;20032;-81
2021/08/17 08:12:13;;;;;;;12.30;4.28;;;;;;;16.31;64.93;101894.28;5051962;28;20063;-80
2021/08/17 08:14:40;;;;;;;9.65;4.32;;;;;;;16.20;65.15;101880.06;5052193;28;20033;-81
2021/08/17 08:17:06;;;;;;;14.40;5.25;;;;;;;16.07;65.94;101876.06;5051282;28;20033;-80
2021/08/17 08:19:31;;;;;;;10.73;4.38;;;;;;;16.07;66.61;101884.13;5051999;28;20037;-81
2021/08/17 08:21:56;;;;;;;10.27;4.65;;;;;;;16.03;66.57;101891.59;5050116;28;20119;-80
2021/08/17 08:24:22;;;;;;;9.38;3.90;;;;;;;16.02;65.65;101890.78;5050657;28;20373;-81
2021/08/17 08:26:47;;;;;;;9.40;3.72;;;;;;;15.93;65.86;101904.22;5051157;28;20075;-82
2021/08/17 08:29:12;;;;;;;11.48;4.40;;;;;;;15.90;66.56;101915.25;5052300;28;20037;-81
2021/08/17 08:31:38;;;;;;;9.85;3.90;;;;;;;15.92;66.47;101919.50;5051964;28;20029;-80
2021/08/17 08:34:04;;;;;;;13.82;4.20;;;;;;;15.93;66.21;101920.31;5051353;28;20090;-81
2021/08/17 08:36:29;;;;;;;13.30;4.40;;;;;;;15.90;66.63;101926.88;5052097;28;20025;-80
2021/08/17 08:38:55;;;;;;;7.95;3.95;;;;;;;15.92;66.42;101935.59;5066430;28;20029;-80
2021/08/17 08:41:20;;;;;;;8.38;3.42;;;;;;;15.93;67.47;101925.69;5054378;28;20056;-81
2021/08/17 08:43:47;;;;;;;13.98;4.00;;;;;;;15.96;68.25;101914.66;5055543;28;20124;-81
2021/08/17 08:46:17;;;;;;;10.20;3.53;;;;;;;15.92;67.32;101926.72;5053639;28;20090;-81
2021/08/17 08:48:48;;;;;;;11.05;4.05;;;;;;;15.62;67.85;101931.31;5054345;28;20437;-79
2021/08/17 08:51:15;;;;;;;14.55;3.60;;;;;;;15.60;68.07;101919.84;5055590;28;20112;-80
2021/08/17 08:53:41;;;;;;;14.48;3.65;;;;;;;15.56;68.91;101926.53;5051933;28;20086;-83
2021/08/17 08:56:07;;;;;;;5.78;3.47;;;;;;;15.52;68.10;101921.47;5052612;28;20037;-82
2021/08/17 08:58:35;;;;;;;8.38;3.70;;;;;;;15.48;67.50;101922.72;5051411;28;20029;-83
2021/08/17 09:01:01;;;;;;;6.07;3.17;;;;;;;15.44;67.49;101913.28;5052359;28;20068;-82
2021/08/17 09:03:42;;;;;;;13.77;4.28;;;;;;;15.38;67.99;101903.13;5052891;28;20112;-84
2021/08/17 09:06:24;;;;;;;9.63;3.60;;;;;;;15.34;69.28;101907.09;5050436;28;20040;-82
2021/08/17 09:09:13;;;;;;;9.27;3.75;;;;;;;15.32;68.16;101901.03;5050879;28;20099;-83
2021/08/17 09:11:41;;;;;;;7.72;3.40;;;;;;;15.30;68.10;101901.19;5051090;28;20033;-82
2021/08/17 09:14:23;;;;;;;10.32;3.88;;;;;;;15.28;68.37;101903.13;5050496;28;20043;-82
2021/08/17 09:16:53;;;;;;;10.80;3.28;;;;;;;15.26;67.49;101893.56;5052340;28;20182;-81
2021/08/17 09:19:43;;;;;;;8.38;2.85;;;;;;;15.27;67.97;101901.47;5051877;28;20132;-81
2021/08/17 09:22:16;;;;;;;7.95;3.42;;;;;;;15.32;67.70;101896.50;5045965;28;20041;-80
2021/08/17 09:24:48;;;;;;;8.43;3.33;;;;;;;15.37;67.86;101895.22;5052200;28;20033;-80
2021/08/17 09:27:34;;;;;;;5.85;3.28;;;;;;;15.38;68.77;101908.50;5048662;28;20255;-80
2021/08/17 09:30:03;;;;;;;8.20;2.80;;;;;;;15.36;68.10;101907.81;5033376;28;20091;-80
2021/08/17 09:32:28;;;;;;;6.07;3.50;;;;;;;15.31;68.19;101902.84;5034523;28;20438;-79
2021/08/17 09:34:57;;;;;;;6.38;2.80;;;;;;;15.20;68.80;101911.06;5034205;28;20056;-79
2021/08/17 09:37:28;;;;;;;7.30;2.85;;;;;;;14.98;69.13;101902.31;5034221;28;20029;-81
2021/08/17 09:39:54;;;;;;;3.92;2.40;;;;;;;14.88;71.15;101906.84;5034171;28;20034;-81
2021/08/17 09:42:31;;;;;;;6.05;3.00;;;;;;;14.73;72.25;101911.78;5034364;28;20033;-80
2021/08/17 09:45:06;;;;;;;4.47;2.55;;;;;;;14.68;72.99;101915.88;5034028;28;20044;-81
2021/08/17 09:47:37;;;;;;;6.25;3.03;;;;;;;14.61;73.89;101907.53;5034549;28;20030;-80
2021/08/17 09:50:22;;;;;;;7.85;3.33;;;;;;;14.65;76.04;101905.44;5033924;28;20067;-80
2021/08/17 09:52:49;;;;;;;8.52;3.25;;;;;;;14.66;77.17;101904.44;5048726;28;20577;-80
2021/08/17 09:55:20;;;;;;;9.48;3.65;;;;;;;14.61;77.79;101900.38;5033778;28;20099;-76
2021/08/17 09:57:46;;;;;;;8.77;3.13;;;;;;;14.52;77.76;101887.78;5034516;28;20114;-80
2021/08/17 10:00:16;;;;;;;6.68;3.05;;;;;;;14.46;79.25;101881.16;5033041;28;20057;-80
2021/08/17 10:02:44;;;;;;;5.97;2.92;;;;;;;14.46;79.44;101877.63;5034282;28;20030;-80
2021/08/17 10:05:13;;;;;;;11.95;3.53;;;;;;;14.48;79.84;101877.47;5033473;28;20030;-80
2021/08/17 10:07:39;;;;;;;6.82;3.35;;;;;;;14.49;80.08;101869.31;5034048;28;20025;-79
2021/08/17 10:10:06;;;;;;;11.05;3.58;;;;;;;14.48;80.72;101877.47;5033378;28;20044;-80
2021/08/17 10:12:32;;;;;;;7.63;3.35;;;;;;;14.40;80.22;101876.34;5033743;28;20038;-77
2021/08/17 10:14:58;;;;;;;9.82;3.17;;;;;;;14.38;80.82;101875.63;5033871;28;20033;-79
2021/08/17 10:17:23;;;;;;;6.57;4.13;;;;;;;14.32;82.41;101870.00;5033213;28;20367;-79
2021/08/17 10:19:49;;;;;;;8.43;4.07;;;;;;;14.21;82.67;101887.00;5033714;28;20065;-76
2021/08/17 10:22:15;;;;;;;12.00;4.10;;;;;;;14.17;83.64;101881.09;5032924;28;20026;-77
2021/08/17 10:24:42;;;;;;;8.70;4.07;;;;;;;14.16;84.53;101878.56;5033940;28;20033;-77
2021/08/17 10:27:17;;;;;;;10.30;4.18;;;;;;;14.15;85.15;101883.06;5032624;28;20053;-77
2021/08/17 10:29:53;;;;;;;9.95;4.15;;;;;;;14.10;84.91;101886.13;5033532;28;20055;-77
2021/08/17 10:32:42;;;;;;;7.28;3.58;;;;;;;14.02;84.28;101885.16;5032991;28;20386;-76
2021/08/17 10:35:34;;;;;;;7.70;3.28;;;;;;;13.86;84.47;101878.47;5032967;28;20037;-76
2021/08/17 10:38:09;;;;;;;9.68;3.70;;;;;;;13.79;85.32;101881.81;5033488;28;20030;-76
2021/08/17 10:40:52;;;;;;;12.65;4.10;;;;;;;13.83;86.66;101888.59;5033219;28;20033;-76
2021/08/17 10:43:31;;;;;;;9.52;4.25;;;;;;;13.86;85.59;101885.66;5032744;28;20026;-76
2021/08/17 10:46:09;;;;;;;9.48;4.38;;;;;;;13.85;86.42;101873.25;5033070;28;20488;-76
2021/08/17 10:48:48;;;;;;;10.02;3.97;;;;;;;13.86;85.73;101880.31;5033241;28;20112;-76
2021/08/17 10:51:20;;;;;;;7.63;3.58;;;;;;;13.88;85.42;101879.19;5032542;28;20029;-76
2021/08/17 10:53:47;;;;;;;11.77;4.20;;;;;;;13.89;86.54;101872.00;5033205;28;20032;-76
2021/08/17 10:56:21;;;;;;;11.27;4.00;;;;;;;13.93;86.01;101873.44;5032080;28;20037;-76
2021/08/17 10:58:49;;;;;;;10.73;3.53;;;;;;;13.99;85.81;101882.72;5032935;28;20051;-76
2021/08/17 11:01:30;;;;;;;10.50;4.53;;;;;;;14.03;85.59;101873.44;5032339;28;20030;-75
2021/08/17 11:03:59;;;;;;;8.60;4.20;;;;;;;13.99;86.16;101869.34;5033030;28;20034;-76
2021/08/17 11:06:41;;;;;;;7.88;4.05;;;;;;;13.93;86.97;101873.44;5032262;28;20236;-76
2021/08/17 11:09:10;;;;;;;14.07;4.78;;;;;;;13.90;87.02;101863.00;5034258;28;20405;-75
2021/08/17 11:11:37;;;;;;;13.18;4.65;;;;;;;13.85;88.23;101874.13;5032881;28;20389;-77
2021/08/17 11:14:07;;;;;;;9.88;4.07;;;;;;;13.82;87.81;101862.81;5033271;28;20040;-77
2021/08/17 11:16:33;;;;;;;12.88;3.85;;;;;;;13.80;87.70;101865.63;5032935;28;20030;-78
2021/08/17 11:19:02;;;;;;;8.55;3.13;;;;;;;13.74;87.21;101867.03;5032827;28;20064;-78